sensor_id;sensor_type;location;lat;lon;timestamp;P1;durP1;ratioP1;P2;durP2;ratioP2
76731;SDS011;65656;51.130;13.658;2023-02-18T00:01:37;7.50;;;6.88;;
76731;SDS011;65656;51.130;13.658;2023-02-18T00:05:39;7.10;;;6.25;;
76731;SDS011;65656;51.130;13.658;2023-02-18T00:09:40;8.75;;;8.13;;
76731;SDS011;65656;51.130;13.658;2023-02-18T00:13:42;4.63;;;3.08;;
76731;SDS011;65656;51.130;13.658;2023-02-18T00:17:45;6.97;;;5.53;;
76731;SDS011;65656;51.130;13.658;2023-02-18T00:21:46;6.55;;;5.90;;
76731;SDS011;65656;51.130;13.658;2023-02-18T00:25:48;5.70;;;4.63;;
76731;SDS011;65656;51.130;13.658;2023-02-18T00:29:49;6.53;;;4.47;;
76731;SDS011;65656;51.130;13.658;2023-02-18T00:33:52;7.70;;;3.20;;
76731;SDS011;65656;51.130;13.658;2023-02-18T00:37:54;5.03;;;4.22;;
76731;SDS011;65656;51.130;13.658;2023-02-18T00:41:56;5.28;;;4.85;;
76731;SDS011;65656;51.130;13.658;2023-02-18T00:45:57;5.90;;;4.88;;
76731;SDS011;65656;51.130;13.658;2023-02-18T00:50:00;9.02;;;8.43;;
76731;SDS011;65656;51.130;13.658;2023-02-18T00:54:02;6.43;;;5.75;;
76731;SDS011;65656;51.130;13.658;2023-02-18T00:58:03;4.47;;;2.83;;
76731;SDS011;65656;51.130;13.658;2023-02-18T01:02:05;5.70;;;5.00;;
76731;SDS011;65656;51.130;13.658;2023-02-18T01:06:08;8.85;;;3.92;;
76731;SDS011;65656;51.130;13.658;2023-02-18T01:10:11;9.38;;;7.70;;
76731;SDS011;65656;51.130;13.658;2023-02-18T01:14:13;9.73;;;9.07;;
76731;SDS011;65656;51.130;13.658;2023-02-18T01:18:14;7.38;;;6.78;;
76731;SDS011;65656;51.130;13.658;2023-02-18T01:22:17;7.88;;;7.20;;
76731;SDS011;65656;51.130;13.658;2023-02-18T01:26:19;5.00;;;4.55;;
76731;SDS011;65656;51.130;13.658;2023-02-18T01:30:21;5.85;;;5.45;;
76731;SDS011;65656;51.130;13.658;2023-02-18T01:34:23;3.80;;;3.45;;
76731;SDS011;65656;51.130;13.658;2023-02-18T01:38:26;6.25;;;5.35;;
76731;SDS011;65656;51.130;13.658;2023-02-18T01:42:28;7.50;;;6.43;;
76731;SDS011;65656;51.130;13.658;2023-02-18T01:46:30;10.50;;;9.82;;
76731;SDS011;65656;51.130;13.658;2023-02-18T01:50:31;5.38;;;4.35;;
76731;SDS011;65656;51.130;13.658;2023-02-18T01:54:39;5.78;;;5.03;;
76731;SDS011;65656;51.130;13.658;2023-02-18T01:58:43;5.93;;;5.47;;
76731;SDS011;65656;51.130;13.658;2023-02-18T02:02:45;7.18;;;6.60;;
76731;SDS011;65656;51.130;13.658;2023-02-18T02:06:48;6.45;;;5.95;;
76731;SDS011;65656;51.130;13.658;2023-02-18T02:10:57;7.55;;;6.82;;
76731;SDS011;65656;51.130;13.658;2023-02-18T02:15:13;11.07;;;10.30;;
76731;SDS011;65656;51.130;13.658;2023-02-18T02:33:36;8.13;;;7.40;;
76731;SDS011;65656;51.130;13.658;2023-02-18T02:38:06;8.52;;;7.72;;
76731;SDS011;65656;51.130;13.658;2023-02-18T02:42:15;6.57;;;4.43;;
76731;SDS011;65656;51.130;13.658;2023-02-18T02:46:26;10.68;;;10.02;;
76731;SDS011;65656;51.130;13.658;2023-02-18T02:50:33;5.78;;;4.28;;
76731;SDS011;65656;51.130;13.658;2023-02-18T02:54:40;7.35;;;6.72;;
76731;SDS011;65656;51.130;13.658;2023-02-18T02:58:41;6.97;;;6.07;;
76731;SDS011;65656;51.130;13.658;2023-02-18T03:02:48;6.68;;;5.95;;
76731;SDS011;65656;51.130;13.658;2023-02-18T03:11:42;7.13;;;3.85;;
76731;SDS011;65656;51.130;13.658;2023-02-18T03:15:54;9.13;;;8.32;;
76731;SDS011;65656;51.130;13.658;2023-02-18T03:20:02;6.35;;;4.72;;
76731;SDS011;65656;51.130;13.658;2023-02-18T03:24:09;8.20;;;7.55;;
76731;SDS011;65656;51.130;13.658;2023-02-18T03:28:18;4.95;;;4.53;;
76731;SDS011;65656;51.130;13.658;2023-02-18T03:32:22;7.20;;;6.55;;
76731;SDS011;65656;51.130;13.658;2023-02-18T03:36:27;7.20;;;6.30;;
76731;SDS011;65656;51.130;13.658;2023-02-18T03:40:28;10.88;;;10.13;;
76731;SDS011;65656;51.130;13.658;2023-02-18T03:44:32;6.78;;;6.18;;
76731;SDS011;65656;51.130;13.658;2023-02-18T03:48:33;12.57;;;11.55;;
76731;SDS011;65656;51.130;13.658;2023-02-18T03:52:35;9.05;;;8.30;;
76731;SDS011;65656;51.130;13.658;2023-02-18T03:56:37;9.45;;;6.75;;
76731;SDS011;65656;51.130;13.658;2023-02-18T04:00:40;6.45;;;5.88;;
76731;SDS011;65656;51.130;13.658;2023-02-18T04:04:41;9.43;;;8.55;;
76731;SDS011;65656;51.130;13.658;2023-02-18T04:08:43;8.13;;;7.38;;
76731;SDS011;65656;51.130;13.658;2023-02-18T04:12:45;10.55;;;9.85;;
76731;SDS011;65656;51.130;13.658;2023-02-18T04:16:48;7.32;;;6.05;;
76731;SDS011;65656;51.130;13.658;2023-02-18T04:20:49;6.30;;;5.22;;
76731;SDS011;65656;51.130;13.658;2023-02-18T04:24:51;10.38;;;7.50;;
76731;SDS011;65656;51.130;13.658;2023-02-18T04:28:52;8.88;;;7.95;;
76731;SDS011;65656;51.130;13.658;2023-02-18T04:32:55;7.00;;;6.32;;
76731;SDS011;65656;51.130;13.658;2023-02-18T04:36:56;6.47;;;5.43;;
76731;SDS011;65656;51.130;13.658;2023-02-18T04:40:58;15.65;;;14.10;;
76731;SDS011;65656;51.130;13.658;2023-02-18T04:44:59;8.48;;;7.85;;
76731;SDS011;65656;51.130;13.658;2023-02-18T04:49:02;10.63;;;9.85;;
76731;SDS011;65656;51.130;13.658;2023-02-18T04:53:04;9.25;;;6.22;;
76731;SDS011;65656;51.130;13.658;2023-02-18T04:57:05;7.60;;;6.78;;
76731;SDS011;65656;51.130;13.658;2023-02-18T05:01:07;8.98;;;8.30;;
76731;SDS011;65656;51.130;13.658;2023-02-18T05:05:09;8.52;;;5.43;;
76731;SDS011;65656;51.130;13.658;2023-02-18T05:09:11;7.10;;;5.25;;
76731;SDS011;65656;51.130;13.658;2023-02-18T05:13:13;8.45;;;7.07;;
76731;SDS011;65656;51.130;13.658;2023-02-18T05:17:15;7.22;;;6.60;;
76731;SDS011;65656;51.130;13.658;2023-02-18T05:21:17;13.90;;;12.73;;
76731;SDS011;65656;51.130;13.658;2023-02-18T05:25:19;8.27;;;7.60;;
76731;SDS011;65656;51.130;13.658;2023-02-18T05:29:21;10.82;;;7.82;;
76731;SDS011;65656;51.130;13.658;2023-02-18T05:33:22;11.05;;;10.10;;
76731;SDS011;65656;51.130;13.658;2023-02-18T05:37:25;13.25;;;12.43;;
76731;SDS011;65656;51.130;13.658;2023-02-18T05:41:27;8.05;;;7.43;;
76731;SDS011;65656;51.130;13.658;2023-02-18T05:45:28;8.02;;;5.95;;
76731;SDS011;65656;51.130;13.658;2023-02-18T05:49:30;10.65;;;9.68;;
76731;SDS011;65656;51.130;13.658;2023-02-18T05:53:33;9.23;;;8.23;;
76731;SDS011;65656;51.130;13.658;2023-02-18T05:57:35;10.15;;;9.18;;
76731;SDS011;65656;51.130;13.658;2023-02-18T06:01:36;9.35;;;7.93;;
76731;SDS011;65656;51.130;13.658;2023-02-18T06:05:38;13.63;;;10.80;;
76731;SDS011;65656;51.130;13.658;2023-02-18T06:09:41;13.00;;;9.20;;
76731;SDS011;65656;51.130;13.658;2023-02-18T06:13:42;11.82;;;8.23;;
76731;SDS011;65656;51.130;13.658;2023-02-18T06:17:44;19.60;;;18.08;;
76731;SDS011;65656;51.130;13.658;2023-02-18T06:21:45;12.50;;;10.98;;
76731;SDS011;65656;51.130;13.658;2023-02-18T06:25:48;30.30;;;27.60;;
76731;SDS011;65656;51.130;13.658;2023-02-18T06:29:50;13.10;;;10.68;;
76731;SDS011;65656;51.130;13.658;2023-02-18T06:33:51;12.77;;;9.70;;
76731;SDS011;65656;51.130;13.658;2023-02-18T06:37:53;12.02;;;10.13;;
76731;SDS011;65656;51.130;13.658;2023-02-18T06:41:55;12.10;;;10.88;;
76731;SDS011;65656;51.130;13.658;2023-02-18T06:45:57;15.52;;;11.05;;
76731;SDS011;65656;51.130;13.658;2023-02-18T06:49:58;19.70;;;17.60;;
76731;SDS011;65656;51.130;13.658;2023-02-18T06:54:00;15.68;;;11.00;;
76731;SDS011;65656;51.130;13.658;2023-02-18T06:58:03;23.15;;;16.42;;
76731;SDS011;65656;51.130;13.658;2023-02-18T07:02:04;20.55;;;18.58;;
76731;SDS011;65656;51.130;13.658;2023-02-18T07:06:06;19.55;;;15.00;;
76731;SDS011;65656;51.130;13.658;2023-02-18T07:10:08;19.77;;;17.88;;
76731;SDS011;65656;51.130;13.658;2023-02-18T07:14:11;15.82;;;14.07;;
76731;SDS011;65656;51.130;13.658;2023-02-18T07:18:13;19.45;;;17.55;;
76731;SDS011;65656;51.130;13.658;2023-02-18T07:22:14;24.15;;;21.70;;
76731;SDS011;65656;51.130;13.658;2023-02-18T07:26:16;19.70;;;17.73;;
76731;SDS011;65656;51.130;13.658;2023-02-18T07:30:19;22.55;;;19.08;;
76731;SDS011;65656;51.130;13.658;2023-02-18T07:34:20;21.92;;;16.00;;
76731;SDS011;65656;51.130;13.658;2023-02-18T07:38:23;17.42;;;15.70;;
76731;SDS011;65656;51.130;13.658;2023-02-18T07:42:25;17.63;;;15.90;;
76731;SDS011;65656;51.130;13.658;2023-02-18T07:46:28;21.50;;;18.30;;
76731;SDS011;65656;51.130;13.658;2023-02-18T07:50:29;15.32;;;13.25;;
76731;SDS011;65656;51.130;13.658;2023-02-18T07:54:31;16.73;;;15.20;;
76731;SDS011;65656;51.130;13.658;2023-02-18T07:58:33;16.27;;;14.77;;
76731;SDS011;65656;51.130;13.658;2023-02-18T08:02:38;20.70;;;17.25;;
76731;SDS011;65656;51.130;13.658;2023-02-18T08:06:40;16.85;;;15.10;;
76731;SDS011;65656;51.130;13.658;2023-02-18T08:10:43;23.00;;;17.58;;
76731;SDS011;65656;51.130;13.658;2023-02-18T08:14:45;16.45;;;14.38;;
76731;SDS011;65656;51.130;13.658;2023-02-18T08:18:47;21.10;;;19.08;;
76731;SDS011;65656;51.130;13.658;2023-02-18T08:22:49;18.77;;;14.13;;
76731;SDS011;65656;51.130;13.658;2023-02-18T08:26:51;16.60;;;14.88;;
76731;SDS011;65656;51.130;13.658;2023-02-18T08:31:01;15.25;;;10.38;;
76731;SDS011;65656;51.130;13.658;2023-02-18T08:35:05;14.45;;;13.00;;
76731;SDS011;65656;51.130;13.658;2023-02-18T08:39:07;19.23;;;16.38;;
76731;SDS011;65656;51.130;13.658;2023-02-18T08:43:09;16.38;;;14.70;;
76731;SDS011;65656;51.130;13.658;2023-02-18T08:47:10;15.55;;;12.65;;
76731;SDS011;65656;51.130;13.658;2023-02-18T08:51:34;20.17;;;16.52;;
76731;SDS011;65656;51.130;13.658;2023-02-18T08:55:38;15.70;;;13.82;;
76731;SDS011;65656;51.130;13.658;2023-02-18T08:59:41;17.00;;;12.60;;
76731;SDS011;65656;51.130;13.658;2023-02-18T09:03:42;15.07;;;13.55;;
76731;SDS011;65656;51.130;13.658;2023-02-18T09:07:45;12.63;;;10.82;;
76731;SDS011;65656;51.130;13.658;2023-02-18T09:11:47;17.02;;;12.43;;
76731;SDS011;65656;51.130;13.658;2023-02-18T09:15:56;14.85;;;11.45;;
76731;SDS011;65656;51.130;13.658;2023-02-18T09:19:59;17.08;;;12.90;;
76731;SDS011;65656;51.130;13.658;2023-02-18T09:24:02;20.77;;;18.75;;
76731;SDS011;65656;51.130;13.658;2023-02-18T09:28:04;17.85;;;15.50;;
76731;SDS011;65656;51.130;13.658;2023-02-18T09:32:06;16.02;;;12.38;;
76731;SDS011;65656;51.130;13.658;2023-02-18T09:36:09;15.38;;;12.68;;
76731;SDS011;65656;51.130;13.658;2023-02-18T09:40:12;15.27;;;12.00;;
76731;SDS011;65656;51.130;13.658;2023-02-18T09:44:25;28.25;;;25.67;;
76731;SDS011;65656;51.130;13.658;2023-02-18T09:48:30;21.25;;;19.52;;
76731;SDS011;65656;51.130;13.658;2023-02-18T09:52:34;11.52;;;10.25;;
76731;SDS011;65656;51.130;13.658;2023-02-18T09:56:38;14.13;;;13.02;;
76731;SDS011;65656;51.130;13.658;2023-02-18T10:04:44;11.73;;;10.82;;
76731;SDS011;65656;51.130;13.658;2023-02-18T10:08:47;12.25;;;11.45;;
76731;SDS011;65656;51.130;13.658;2023-02-18T10:12:52;5.03;;;4.63;;
76731;SDS011;65656;51.130;13.658;2023-02-18T10:16:54;5.55;;;5.13;;
76731;SDS011;65656;51.130;13.658;2023-02-18T10:21:05;5.60;;;5.07;;
76731;SDS011;65656;51.130;13.658;2023-02-18T10:25:11;6.30;;;5.80;;
76731;SDS011;65656;51.130;13.658;2023-02-18T10:29:20;4.57;;;4.18;;
76731;SDS011;65656;51.130;13.658;2023-02-18T10:33:26;5.82;;;5.35;;
76731;SDS011;65656;51.130;13.658;2023-02-18T10:37:41;6.15;;;5.68;;
76731;SDS011;65656;51.130;13.658;2023-02-18T10:41:53;5.25;;;4.80;;
76731;SDS011;65656;51.130;13.658;2023-02-18T10:46:06;7.70;;;7.18;;
76731;SDS011;65656;51.130;13.658;2023-02-18T10:50:22;6.35;;;5.05;;
76731;SDS011;65656;51.130;13.658;2023-02-18T10:54:28;6.45;;;5.90;;
76731;SDS011;65656;51.130;13.658;2023-02-18T10:58:49;9.70;;;8.98;;
76731;SDS011;65656;51.130;13.658;2023-02-18T11:03:02;7.00;;;6.47;;
76731;SDS011;65656;51.130;13.658;2023-02-18T11:07:18;5.50;;;4.28;;
76731;SDS011;65656;51.130;13.658;2023-02-18T11:11:23;7.45;;;7.05;;
76731;SDS011;65656;51.130;13.658;2023-02-18T11:15:29;6.30;;;5.90;;
76731;SDS011;65656;51.130;13.658;2023-02-18T11:19:37;6.13;;;5.55;;
76731;SDS011;65656;51.130;13.658;2023-02-18T11:23:44;7.85;;;7.22;;
76731;SDS011;65656;51.130;13.658;2023-02-18T11:27:47;4.95;;;4.63;;
76731;SDS011;65656;51.130;13.658;2023-02-18T11:31:51;6.40;;;6.00;;
76731;SDS011;65656;51.130;13.658;2023-02-18T11:35:57;6.78;;;6.25;;
76731;SDS011;65656;51.130;13.658;2023-02-18T11:40:06;3.15;;;2.85;;
76731;SDS011;65656;51.130;13.658;2023-02-18T11:44:16;7.70;;;7.28;;
76731;SDS011;65656;51.130;13.658;2023-02-18T11:48:22;5.82;;;5.50;;
76731;SDS011;65656;51.130;13.658;2023-02-18T11:52:26;6.20;;;5.80;;
76731;SDS011;65656;51.130;13.658;2023-02-18T11:56:30;4.50;;;4.10;;
76731;SDS011;65656;51.130;13.658;2023-02-18T12:00:35;4.65;;;4.35;;
76731;SDS011;65656;51.130;13.658;2023-02-18T12:04:39;4.88;;;4.55;;
76731;SDS011;65656;51.130;13.658;2023-02-18T12:08:46;7.57;;;5.63;;
76731;SDS011;65656;51.130;13.658;2023-02-18T12:12:53;10.32;;;9.38;;
76731;SDS011;65656;51.130;13.658;2023-02-18T12:21:34;4.15;;;3.83;;
76731;SDS011;65656;51.130;13.658;2023-02-18T12:25:46;3.50;;;3.20;;
76731;SDS011;65656;51.130;13.658;2023-02-18T12:29:59;4.65;;;3.42;;
76731;SDS011;65656;51.130;13.658;2023-02-18T12:34:28;5.78;;;5.43;;
76731;SDS011;65656;51.130;13.658;2023-02-18T12:38:52;6.47;;;5.97;;
76731;SDS011;65656;51.130;13.658;2023-02-18T12:42:59;8.82;;;8.20;;
76731;SDS011;65656;51.130;13.658;2023-02-18T12:47:17;6.07;;;5.22;;
76731;SDS011;65656;51.130;13.658;2023-02-18T12:51:43;7.55;;;7.03;;
76731;SDS011;65656;51.130;13.658;2023-02-18T12:56:00;12.93;;;12.05;;
76731;SDS011;65656;51.130;13.658;2023-02-18T13:04:52;4.32;;;4.00;;
76731;SDS011;65656;51.130;13.658;2023-02-18T13:09:02;6.00;;;5.20;;
76731;SDS011;65656;51.130;13.658;2023-02-18T13:13:10;3.35;;;3.05;;
76731;SDS011;65656;51.130;13.658;2023-02-18T13:17:18;5.93;;;4.97;;
76731;SDS011;65656;51.130;13.658;2023-02-18T13:21:21;6.68;;;6.22;;
76731;SDS011;65656;51.130;13.658;2023-02-18T13:25:23;7.13;;;6.63;;
76731;SDS011;65656;51.130;13.658;2023-02-18T13:29:26;7.07;;;6.65;;
76731;SDS011;65656;51.130;13.658;2023-02-18T13:33:35;6.28;;;5.88;;
76731;SDS011;65656;51.130;13.658;2023-02-18T13:37:46;4.70;;;4.30;;
76731;SDS011;65656;51.130;13.658;2023-02-18T13:42:10;5.38;;;5.05;;
76731;SDS011;65656;51.130;13.658;2023-02-18T13:46:24;6.45;;;5.97;;
76731;SDS011;65656;51.130;13.658;2023-02-18T13:50:29;5.53;;;5.10;;
76731;SDS011;65656;51.130;13.658;2023-02-18T13:54:33;4.88;;;4.55;;
76731;SDS011;65656;51.130;13.658;2023-02-18T13:58:43;7.70;;;7.30;;
76731;SDS011;65656;51.130;13.658;2023-02-18T14:02:55;12.18;;;11.52;;
76731;SDS011;65656;51.130;13.658;2023-02-18T14:15:53;4.38;;;4.05;;
76731;SDS011;65656;51.130;13.658;2023-02-18T14:24:43;5.28;;;4.97;;
76731;SDS011;65656;51.130;13.658;2023-02-18T14:28:49;3.42;;;3.20;;
76731;SDS011;65656;51.130;13.658;2023-02-18T14:32:55;4.65;;;4.30;;
76731;SDS011;65656;51.130;13.658;2023-02-18T14:37:02;6.35;;;5.93;;
76731;SDS011;65656;51.130;13.658;2023-02-18T14:41:16;2.90;;;2.60;;
76731;SDS011;65656;51.130;13.658;2023-02-18T14:45:32;9.55;;;9.00;;
76731;SDS011;65656;51.130;13.658;2023-02-18T14:49:44;4.75;;;4.32;;
76731;SDS011;65656;51.130;13.658;2023-02-18T14:53:49;6.53;;;6.18;;
76731;SDS011;65656;51.130;13.658;2023-02-18T14:57:55;2.80;;;2.28;;
76731;SDS011;65656;51.130;13.658;2023-02-18T15:02:02;5.68;;;5.38;;
76731;SDS011;65656;51.130;13.658;2023-02-18T15:06:20;5.70;;;5.43;;
76731;SDS011;65656;51.130;13.658;2023-02-18T15:10:24;3.70;;;3.40;;
76731;SDS011;65656;51.130;13.658;2023-02-18T15:14:31;3.70;;;3.47;;
76731;SDS011;65656;51.130;13.658;2023-02-18T15:18:36;4.88;;;4.57;;
76731;SDS011;65656;51.130;13.658;2023-02-18T15:22:40;5.00;;;4.63;;
76731;SDS011;65656;51.130;13.658;2023-02-18T15:26:43;11.02;;;9.82;;
76731;SDS011;65656;51.130;13.658;2023-02-18T15:30:49;5.57;;;5.20;;
76731;SDS011;65656;51.130;13.658;2023-02-18T15:34:51;8.10;;;7.68;;
76731;SDS011;65656;51.130;13.658;2023-02-18T15:38:55;7.55;;;7.15;;
76731;SDS011;65656;51.130;13.658;2023-02-18T15:42:57;5.38;;;5.05;;
76731;SDS011;65656;51.130;13.658;2023-02-18T15:47:03;3.88;;;3.53;;
76731;SDS011;65656;51.130;13.658;2023-02-18T15:51:09;7.85;;;7.35;;
76731;SDS011;65656;51.130;13.658;2023-02-18T15:55:20;8.43;;;7.93;;
76731;SDS011;65656;51.130;13.658;2023-02-18T15:59:27;6.18;;;5.82;;
76731;SDS011;65656;51.130;13.658;2023-02-18T16:03:34;2.75;;;2.55;;
76731;SDS011;65656;51.130;13.658;2023-02-18T16:07:48;2.92;;;2.72;;
76731;SDS011;65656;51.130;13.658;2023-02-18T16:11:52;11.02;;;10.43;;
76731;SDS011;65656;51.130;13.658;2023-02-18T16:15:56;4.50;;;4.20;;
76731;SDS011;65656;51.130;13.658;2023-02-18T16:20:13;3.75;;;3.45;;
76731;SDS011;65656;51.130;13.658;2023-02-18T16:24:21;5.15;;;4.82;;
76731;SDS011;65656;51.130;13.658;2023-02-18T16:28:26;8.98;;;8.55;;
76731;SDS011;65656;51.130;13.658;2023-02-18T16:32:32;3.10;;;2.47;;
76731;SDS011;65656;51.130;13.658;2023-02-18T16:36:35;4.55;;;4.25;;
76731;SDS011;65656;51.130;13.658;2023-02-18T16:40:37;4.72;;;4.10;;
76731;SDS011;65656;51.130;13.658;2023-02-18T16:44:39;4.68;;;4.40;;
76731;SDS011;65656;51.130;13.658;2023-02-18T16:48:42;7.75;;;7.32;;
76731;SDS011;65656;51.130;13.658;2023-02-18T16:52:46;5.90;;;5.57;;
76731;SDS011;65656;51.130;13.658;2023-02-18T16:56:48;9.00;;;8.57;;
76731;SDS011;65656;51.130;13.658;2023-02-18T17:00:50;3.65;;;3.17;;
76731;SDS011;65656;51.130;13.658;2023-02-18T17:04:52;5.25;;;4.95;;
76731;SDS011;65656;51.130;13.658;2023-02-18T17:08:55;4.53;;;4.20;;
76731;SDS011;65656;51.130;13.658;2023-02-18T17:12:56;5.22;;;4.78;;
76731;SDS011;65656;51.130;13.658;2023-02-18T17:16:58;7.63;;;7.13;;
76731;SDS011;65656;51.130;13.658;2023-02-18T17:20:59;7.28;;;6.85;;
76731;SDS011;65656;51.130;13.658;2023-02-18T17:25:04;4.97;;;4.65;;
76731;SDS011;65656;51.130;13.658;2023-02-18T17:29:12;5.68;;;5.32;;
76731;SDS011;65656;51.130;13.658;2023-02-18T17:33:14;5.10;;;4.78;;
76731;SDS011;65656;51.130;13.658;2023-02-18T17:37:18;4.90;;;4.55;;
76731;SDS011;65656;51.130;13.658;2023-02-18T17:41:21;9.25;;;8.80;;
76731;SDS011;65656;51.130;13.658;2023-02-18T17:45:24;3.90;;;3.60;;
76731;SDS011;65656;51.130;13.658;2023-02-18T17:49:28;4.78;;;3.75;;
76731;SDS011;65656;51.130;13.658;2023-02-18T17:53:29;5.70;;;5.20;;
76731;SDS011;65656;51.130;13.658;2023-02-18T17:57:32;9.70;;;9.20;;
76731;SDS011;65656;51.130;13.658;2023-02-18T18:01:34;3.88;;;3.55;;
76731;SDS011;65656;51.130;13.658;2023-02-18T18:05:37;5.65;;;5.30;;
76731;SDS011;65656;51.130;13.658;2023-02-18T18:09:40;4.85;;;4.53;;
76731;SDS011;65656;51.130;13.658;2023-02-18T18:13:43;4.47;;;4.18;;
76731;SDS011;65656;51.130;13.658;2023-02-18T18:17:44;5.82;;;5.43;;
76731;SDS011;65656;51.130;13.658;2023-02-18T18:21:46;5.07;;;4.57;;
76731;SDS011;65656;51.130;13.658;2023-02-18T18:25:48;4.78;;;4.45;;
76731;SDS011;65656;51.130;13.658;2023-02-18T18:29:52;4.35;;;3.75;;
76731;SDS011;65656;51.130;13.658;2023-02-18T18:33:54;4.97;;;4.65;;
76731;SDS011;65656;51.130;13.658;2023-02-18T18:37:56;6.60;;;6.20;;
76731;SDS011;65656;51.130;13.658;2023-02-18T18:41:58;3.80;;;3.50;;
76731;SDS011;65656;51.130;13.658;2023-02-18T18:46:01;9.15;;;7.22;;
76731;SDS011;65656;51.130;13.658;2023-02-18T18:50:03;6.85;;;6.30;;
76731;SDS011;65656;51.130;13.658;2023-02-18T18:54:05;15.18;;;12.93;;
76731;SDS011;65656;51.130;13.658;2023-02-18T18:58:06;5.40;;;4.90;;
76731;SDS011;65656;51.130;13.658;2023-02-18T19:02:10;4.25;;;3.67;;
76731;SDS011;65656;51.130;13.658;2023-02-18T19:06:15;4.65;;;4.25;;
76731;SDS011;65656;51.130;13.658;2023-02-18T19:10:17;4.13;;;3.80;;
76731;SDS011;65656;51.130;13.658;2023-02-18T19:14:19;4.85;;;4.55;;
76731;SDS011;65656;51.130;13.658;2023-02-18T19:18:22;5.22;;;4.82;;
76731;SDS011;65656;51.130;13.658;2023-02-18T19:22:24;4.45;;;4.13;;
76731;SDS011;65656;51.130;13.658;2023-02-18T19:26:25;9.05;;;8.52;;
76731;SDS011;65656;51.130;13.658;2023-02-18T19:30:29;4.03;;;3.47;;
76731;SDS011;65656;51.130;13.658;2023-02-18T19:38:37;4.75;;;4.35;;
76731;SDS011;65656;51.130;13.658;2023-02-18T19:42:39;6.38;;;5.72;;
76731;SDS011;65656;51.130;13.658;2023-02-18T19:46:41;7.75;;;7.13;;
76731;SDS011;65656;51.130;13.658;2023-02-18T19:50:44;7.13;;;6.53;;
76731;SDS011;65656;51.130;13.658;2023-02-18T19:54:45;4.93;;;4.50;;
76731;SDS011;65656;51.130;13.658;2023-02-18T19:58:47;8.13;;;7.60;;
76731;SDS011;65656;51.130;13.658;2023-02-18T20:02:49;6.38;;;5.82;;
76731;SDS011;65656;51.130;13.658;2023-02-18T20:06:52;7.00;;;6.57;;
76731;SDS011;65656;51.130;13.658;2023-02-18T20:10:57;21.73;;;20.63;;
76731;SDS011;65656;51.130;13.658;2023-02-18T20:14:58;4.57;;;4.18;;
76731;SDS011;65656;51.130;13.658;2023-02-18T20:19:00;8.98;;;8.40;;
76731;SDS011;65656;51.130;13.658;2023-02-18T20:23:03;4.97;;;4.57;;
76731;SDS011;65656;51.130;13.658;2023-02-18T20:27:05;8.15;;;7.60;;
76731;SDS011;65656;51.130;13.658;2023-02-18T20:31:08;6.30;;;5.65;;
76731;SDS011;65656;51.130;13.658;2023-02-18T20:35:12;6.93;;;6.40;;
76731;SDS011;65656;51.130;13.658;2023-02-18T20:39:15;8.88;;;8.25;;
76731;SDS011;65656;51.130;13.658;2023-02-18T20:43:17;6.28;;;4.95;;
76731;SDS011;65656;51.130;13.658;2023-02-18T20:47:18;4.68;;;4.25;;
76731;SDS011;65656;51.130;13.658;2023-02-18T20:51:20;5.82;;;5.13;;
76731;SDS011;65656;51.130;13.658;2023-02-18T20:55:24;5.95;;;5.43;;
76731;SDS011;65656;51.130;13.658;2023-02-18T20:59:25;10.00;;;9.20;;
76731;SDS011;65656;51.130;13.658;2023-02-18T21:03:27;7.55;;;6.95;;
76731;SDS011;65656;51.130;13.658;2023-02-18T21:07:29;8.50;;;7.68;;
76731;SDS011;65656;51.130;13.658;2023-02-18T21:11:32;10.55;;;9.88;;
76731;SDS011;65656;51.130;13.658;2023-02-18T21:15:34;7.05;;;6.53;;
76731;SDS011;65656;51.130;13.658;2023-02-18T21:19:36;9.75;;;9.13;;
76731;SDS011;65656;51.130;13.658;2023-02-18T21:23:38;5.53;;;5.10;;
76731;SDS011;65656;51.130;13.658;2023-02-18T21:27:41;3.42;;;2.75;;
76731;SDS011;65656;51.130;13.658;2023-02-18T21:31:42;4.75;;;4.30;;
76731;SDS011;65656;51.130;13.658;2023-02-18T21:35:44;7.60;;;7.10;;
76731;SDS011;65656;51.130;13.658;2023-02-18T21:39:46;9.20;;;8.57;;
76731;SDS011;65656;51.130;13.658;2023-02-18T21:43:49;4.93;;;4.00;;
76731;SDS011;65656;51.130;13.658;2023-02-18T21:47:50;8.05;;;7.43;;
76731;SDS011;65656;51.130;13.658;2023-02-18T21:51:52;10.85;;;9.93;;
76731;SDS011;65656;51.130;13.658;2023-02-18T21:55:53;10.73;;;10.00;;
76731;SDS011;65656;51.130;13.658;2023-02-18T22:00:05;6.65;;;6.03;;
76731;SDS011;65656;51.130;13.658;2023-02-18T22:04:21;10.50;;;9.80;;
76731;SDS011;65656;51.130;13.658;2023-02-18T22:08:22;6.88;;;6.28;;
76731;SDS011;65656;51.130;13.658;2023-02-18T22:12:24;10.98;;;10.18;;
76731;SDS011;65656;51.130;13.658;2023-02-18T22:16:27;8.93;;;8.15;;
76731;SDS011;65656;51.130;13.658;2023-02-18T22:20:29;9.13;;;8.40;;
76731;SDS011;65656;51.130;13.658;2023-02-18T22:24:30;5.25;;;4.57;;
76731;SDS011;65656;51.130;13.658;2023-02-18T22:28:32;7.30;;;6.30;;
76731;SDS011;65656;51.130;13.658;2023-02-18T22:32:35;9.38;;;8.63;;
76731;SDS011;65656;51.130;13.658;2023-02-18T22:36:37;8.00;;;7.25;;
76731;SDS011;65656;51.130;13.658;2023-02-18T22:40:39;6.32;;;5.70;;
76731;SDS011;65656;51.130;13.658;2023-02-18T22:44:40;7.55;;;6.78;;
76731;SDS011;65656;51.130;13.658;2023-02-18T22:48:43;10.57;;;7.80;;
76731;SDS011;65656;51.130;13.658;2023-02-18T22:52:45;9.00;;;8.18;;
76731;SDS011;65656;51.130;13.658;2023-02-18T22:56:47;10.43;;;7.78;;
76731;SDS011;65656;51.130;13.658;2023-02-18T23:00:48;7.35;;;6.40;;
76731;SDS011;65656;51.130;13.658;2023-02-18T23:04:51;9.93;;;9.00;;
76731;SDS011;65656;51.130;13.658;2023-02-18T23:08:53;8.95;;;6.60;;
76731;SDS011;65656;51.130;13.658;2023-02-18T23:12:55;9.55;;;8.60;;
76731;SDS011;65656;51.130;13.658;2023-02-18T23:16:56;11.23;;;10.35;;
76731;SDS011;65656;51.130;13.658;2023-02-18T23:21:01;10.23;;;9.13;;
76731;SDS011;65656;51.130;13.658;2023-02-18T23:25:04;10.48;;;9.48;;
76731;SDS011;65656;51.130;13.658;2023-02-18T23:29:06;8.80;;;8.05;;
76731;SDS011;65656;51.130;13.658;2023-02-18T23:33:07;8.63;;;7.60;;
76731;SDS011;65656;51.130;13.658;2023-02-18T23:37:10;9.75;;;7.57;;
76731;SDS011;65656;51.130;13.658;2023-02-18T23:41:12;8.75;;;6.50;;
76731;SDS011;65656;51.130;13.658;2023-02-18T23:45:13;8.35;;;7.63;;
76731;SDS011;65656;51.130;13.658;2023-02-18T23:49:15;9.65;;;8.82;;
76731;SDS011;65656;51.130;13.658;2023-02-18T23:53:19;11.05;;;9.52;;
76731;SDS011;65656;51.130;13.658;2023-02-18T23:57:28;10.10;;;9.18;;
